sensor_id;sensor_type;location;lat;lon;timestamp;P1;durP1;ratioP1;P2;durP2;ratioP2
81221;SDS011;70691;52.492;13.420;2023-08-06T00:00:37;10.85;;;7.00;;
81221;SDS011;70691;52.492;13.420;2023-08-06T00:03:03;9.48;;;6.72;;
81221;SDS011;70691;52.492;13.420;2023-08-06T00:05:29;11.38;;;8.32;;
81221;SDS011;70691;52.492;13.420;2023-08-06T00:07:54;9.50;;;7.28;;
81221;SDS011;70691;52.492;13.420;2023-08-06T00:10:23;13.10;;;8.02;;
81221;SDS011;70691;52.492;13.420;2023-08-06T00:12:49;10.57;;;7.43;;
81221;SDS011;70691;52.492;13.420;2023-08-06T00:15:15;12.02;;;8.20;;
81221;SDS011;70691;52.492;13.420;2023-08-06T00:17:40;10.95;;;7.50;;
81221;SDS011;70691;52.492;13.420;2023-08-06T00:20:06;14.40;;;7.95;;
81221;SDS011;70691;52.492;13.420;2023-08-06T00:24:59;13.35;;;9.63;;
81221;SDS011;70691;52.492;13.420;2023-08-06T00:27:25;12.40;;;10.18;;
81221;SDS011;70691;52.492;13.420;2023-08-06T00:29:51;15.02;;;9.60;;
81221;SDS011;70691;52.492;13.420;2023-08-06T00:32:17;14.43;;;9.85;;
81221;SDS011;70691;52.492;13.420;2023-08-06T00:34:43;16.88;;;9.77;;
81221;SDS011;70691;52.492;13.420;2023-08-06T00:37:08;14.57;;;11.00;;
81221;SDS011;70691;52.492;13.420;2023-08-06T00:39:34;11.85;;;7.70;;
81221;SDS011;70691;52.492;13.420;2023-08-06T00:42:00;18.27;;;11.98;;
81221;SDS011;70691;52.492;13.420;2023-08-06T00:44:25;13.50;;;10.43;;
81221;SDS011;70691;52.492;13.420;2023-08-06T00:46:51;13.40;;;8.40;;
81221;SDS011;70691;52.492;13.420;2023-08-06T00:49:17;12.82;;;9.27;;
81221;SDS011;70691;52.492;13.420;2023-08-06T00:51:43;11.65;;;8.05;;
81221;SDS011;70691;52.492;13.420;2023-08-06T00:54:09;10.75;;;7.60;;
81221;SDS011;70691;52.492;13.420;2023-08-06T00:56:35;14.60;;;9.82;;
81221;SDS011;70691;52.492;13.420;2023-08-06T00:59:02;11.98;;;9.45;;
81221;SDS011;70691;52.492;13.420;2023-08-06T01:01:31;12.60;;;8.00;;
81221;SDS011;70691;52.492;13.420;2023-08-06T01:03:57;12.35;;;9.00;;
81221;SDS011;70691;52.492;13.420;2023-08-06T01:06:35;11.70;;;8.00;;
81221;SDS011;70691;52.492;13.420;2023-08-06T01:09:17;9.63;;;7.85;;
81221;SDS011;70691;52.492;13.420;2023-08-06T01:14:54;8.23;;;6.95;;
81221;SDS011;70691;52.492;13.420;2023-08-06T01:17:41;9.98;;;7.85;;
81221;SDS011;70691;52.492;13.420;2023-08-06T01:20:09;13.02;;;7.50;;
81221;SDS011;70691;52.492;13.420;2023-08-06T01:22:35;7.20;;;5.95;;
81221;SDS011;70691;52.492;13.420;2023-08-06T01:25:01;8.85;;;7.38;;
81221;SDS011;70691;52.492;13.420;2023-08-06T01:27:28;12.27;;;8.15;;
81221;SDS011;70691;52.492;13.420;2023-08-06T01:30:21;8.88;;;6.80;;
81221;SDS011;70691;52.492;13.420;2023-08-06T01:32:59;13.10;;;8.98;;
81221;SDS011;70691;52.492;13.420;2023-08-06T01:35:27;9.88;;;7.50;;
81221;SDS011;70691;52.492;13.420;2023-08-06T01:37:53;9.48;;;7.03;;
81221;SDS011;70691;52.492;13.420;2023-08-06T01:40:21;11.95;;;8.90;;
81221;SDS011;70691;52.492;13.420;2023-08-06T01:42:47;12.18;;;8.15;;
81221;SDS011;70691;52.492;13.420;2023-08-06T01:45:12;14.38;;;8.52;;
81221;SDS011;70691;52.492;13.420;2023-08-06T01:47:39;11.20;;;8.88;;
81221;SDS011;70691;52.492;13.420;2023-08-06T01:50:04;10.43;;;8.35;;
81221;SDS011;70691;52.492;13.420;2023-08-06T01:52:30;16.48;;;10.52;;
81221;SDS011;70691;52.492;13.420;2023-08-06T01:54:56;13.68;;;7.97;;
81221;SDS011;70691;52.492;13.420;2023-08-06T01:57:21;11.35;;;7.80;;
81221;SDS011;70691;52.492;13.420;2023-08-06T01:59:47;11.73;;;8.48;;
81221;SDS011;70691;52.492;13.420;2023-08-06T02:02:13;9.93;;;7.78;;
81221;SDS011;70691;52.492;13.420;2023-08-06T02:04:38;8.75;;;6.93;;
81221;SDS011;70691;52.492;13.420;2023-08-06T02:07:04;13.38;;;9.02;;
81221;SDS011;70691;52.492;13.420;2023-08-06T02:09:30;13.50;;;8.85;;
81221;SDS011;70691;52.492;13.420;2023-08-06T02:11:56;16.95;;;10.02;;
81221;SDS011;70691;52.492;13.420;2023-08-06T02:14:21;11.23;;;8.68;;
81221;SDS011;70691;52.492;13.420;2023-08-06T02:16:47;12.02;;;8.55;;
81221;SDS011;70691;52.492;13.420;2023-08-06T02:19:13;12.32;;;8.38;;
81221;SDS011;70691;52.492;13.420;2023-08-06T02:21:39;12.40;;;8.57;;
81221;SDS011;70691;52.492;13.420;2023-08-06T02:24:05;10.63;;;7.97;;
81221;SDS011;70691;52.492;13.420;2023-08-06T02:26:30;12.77;;;8.77;;
81221;SDS011;70691;52.492;13.420;2023-08-06T02:28:56;20.55;;;12.95;;
81221;SDS011;70691;52.492;13.420;2023-08-06T02:31:21;11.02;;;8.60;;
81221;SDS011;70691;52.492;13.420;2023-08-06T02:33:47;11.88;;;8.27;;
81221;SDS011;70691;52.492;13.420;2023-08-06T02:38:58;11.70;;;8.30;;
81221;SDS011;70691;52.492;13.420;2023-08-06T02:41:30;10.80;;;8.25;;
81221;SDS011;70691;52.492;13.420;2023-08-06T02:43:55;12.57;;;9.02;;
81221;SDS011;70691;52.492;13.420;2023-08-06T02:46:21;10.82;;;7.88;;
81221;SDS011;70691;52.492;13.420;2023-08-06T02:48:46;11.50;;;7.40;;
81221;SDS011;70691;52.492;13.420;2023-08-06T02:51:12;9.35;;;7.78;;
81221;SDS011;70691;52.492;13.420;2023-08-06T02:53:38;8.77;;;7.50;;
81221;SDS011;70691;52.492;13.420;2023-08-06T02:56:03;9.07;;;7.30;;
81221;SDS011;70691;52.492;13.420;2023-08-06T02:58:29;11.30;;;7.00;;
81221;SDS011;70691;52.492;13.420;2023-08-06T03:01:01;10.88;;;8.32;;
81221;SDS011;70691;52.492;13.420;2023-08-06T03:03:29;15.48;;;11.73;;
81221;SDS011;70691;52.492;13.420;2023-08-06T03:05:55;9.90;;;7.50;;
81221;SDS011;70691;52.492;13.420;2023-08-06T03:08:21;12.43;;;8.48;;
81221;SDS011;70691;52.492;13.420;2023-08-06T03:10:48;12.82;;;8.00;;
81221;SDS011;70691;52.492;13.420;2023-08-06T03:13:14;9.27;;;6.57;;
81221;SDS011;70691;52.492;13.420;2023-08-06T03:15:41;7.95;;;6.90;;
81221;SDS011;70691;52.492;13.420;2023-08-06T03:18:06;8.18;;;5.90;;
81221;SDS011;70691;52.492;13.420;2023-08-06T03:20:32;6.47;;;5.38;;
81221;SDS011;70691;52.492;13.420;2023-08-06T03:22:58;9.60;;;6.50;;
81221;SDS011;70691;52.492;13.420;2023-08-06T03:25:23;10.07;;;5.90;;
81221;SDS011;70691;52.492;13.420;2023-08-06T03:27:49;8.63;;;5.57;;
81221;SDS011;70691;52.492;13.420;2023-08-06T03:30:17;6.70;;;5.25;;
81221;SDS011;70691;52.492;13.420;2023-08-06T03:32:43;7.70;;;5.05;;
81221;SDS011;70691;52.492;13.420;2023-08-06T03:35:08;7.85;;;6.07;;
81221;SDS011;70691;52.492;13.420;2023-08-06T03:37:34;6.75;;;5.00;;
81221;SDS011;70691;52.492;13.420;2023-08-06T03:40:00;8.45;;;5.18;;
81221;SDS011;70691;52.492;13.420;2023-08-06T03:42:25;9.00;;;5.45;;
81221;SDS011;70691;52.492;13.420;2023-08-06T03:44:51;8.48;;;5.75;;
81221;SDS011;70691;52.492;13.420;2023-08-06T03:47:17;8.90;;;6.43;;
81221;SDS011;70691;52.492;13.420;2023-08-06T03:49:42;10.48;;;6.82;;
81221;SDS011;70691;52.492;13.420;2023-08-06T03:52:08;8.88;;;6.50;;
81221;SDS011;70691;52.492;13.420;2023-08-06T03:54:34;11.20;;;7.55;;
81221;SDS011;70691;52.492;13.420;2023-08-06T03:56:59;11.75;;;6.25;;
81221;SDS011;70691;52.492;13.420;2023-08-06T03:59:25;10.90;;;6.10;;
81221;SDS011;70691;52.492;13.420;2023-08-06T04:01:51;8.27;;;6.20;;
81221;SDS011;70691;52.492;13.420;2023-08-06T04:04:16;9.68;;;5.50;;
81221;SDS011;70691;52.492;13.420;2023-08-06T04:06:42;9.25;;;6.00;;
81221;SDS011;70691;52.492;13.420;2023-08-06T04:09:07;6.00;;;5.18;;
81221;SDS011;70691;52.492;13.420;2023-08-06T04:11:33;8.13;;;6.00;;
81221;SDS011;70691;52.492;13.420;2023-08-06T04:13:59;7.40;;;5.53;;
81221;SDS011;70691;52.492;13.420;2023-08-06T04:16:24;7.82;;;5.78;;
81221;SDS011;70691;52.492;13.420;2023-08-06T04:18:51;7.85;;;6.32;;
81221;SDS011;70691;52.492;13.420;2023-08-06T04:21:18;6.70;;;5.18;;
81221;SDS011;70691;52.492;13.420;2023-08-06T04:23:44;9.70;;;6.65;;
81221;SDS011;70691;52.492;13.420;2023-08-06T04:26:10;9.68;;;6.40;;
81221;SDS011;70691;52.492;13.420;2023-08-06T04:28:35;10.57;;;6.22;;
81221;SDS011;70691;52.492;13.420;2023-08-06T04:31:01;8.25;;;6.43;;
81221;SDS011;70691;52.492;13.420;2023-08-06T04:33:26;7.85;;;5.97;;
81221;SDS011;70691;52.492;13.420;2023-08-06T04:35:55;6.75;;;5.30;;
81221;SDS011;70691;52.492;13.420;2023-08-06T04:38:23;7.10;;;5.73;;
81221;SDS011;70691;52.492;13.420;2023-08-06T04:40:50;7.90;;;6.13;;
81221;SDS011;70691;52.492;13.420;2023-08-06T04:43:15;10.55;;;6.35;;
81221;SDS011;70691;52.492;13.420;2023-08-06T04:45:47;6.25;;;5.40;;
81221;SDS011;70691;52.492;13.420;2023-08-06T04:48:14;8.15;;;5.75;;
81221;SDS011;70691;52.492;13.420;2023-08-06T04:50:43;7.22;;;5.30;;
81221;SDS011;70691;52.492;13.420;2023-08-06T04:53:10;7.50;;;4.97;;
81221;SDS011;70691;52.492;13.420;2023-08-06T04:55:35;10.20;;;5.53;;
81221;SDS011;70691;52.492;13.420;2023-08-06T04:58:01;7.45;;;4.95;;
81221;SDS011;70691;52.492;13.420;2023-08-06T05:00:27;7.25;;;4.82;;
81221;SDS011;70691;52.492;13.420;2023-08-06T05:02:52;6.07;;;4.60;;
81221;SDS011;70691;52.492;13.420;2023-08-06T05:05:18;5.63;;;4.68;;
81221;SDS011;70691;52.492;13.420;2023-08-06T05:07:45;6.47;;;4.65;;
81221;SDS011;70691;52.492;13.420;2023-08-06T05:10:15;6.63;;;4.75;;
81221;SDS011;70691;52.492;13.420;2023-08-06T05:12:41;5.15;;;3.97;;
81221;SDS011;70691;52.492;13.420;2023-08-06T05:15:06;5.82;;;4.30;;
81221;SDS011;70691;52.492;13.420;2023-08-06T05:17:33;6.78;;;4.40;;
81221;SDS011;70691;52.492;13.420;2023-08-06T05:19:59;5.32;;;4.10;;
81221;SDS011;70691;52.492;13.420;2023-08-06T05:22:24;5.28;;;4.07;;
81221;SDS011;70691;52.492;13.420;2023-08-06T05:24:50;7.15;;;5.00;;
81221;SDS011;70691;52.492;13.420;2023-08-06T05:27:16;5.47;;;4.13;;
81221;SDS011;70691;52.492;13.420;2023-08-06T05:29:44;5.28;;;4.32;;
81221;SDS011;70691;52.492;13.420;2023-08-06T05:32:10;7.53;;;4.20;;
81221;SDS011;70691;52.492;13.420;2023-08-06T05:34:35;4.97;;;3.80;;
81221;SDS011;70691;52.492;13.420;2023-08-06T05:37:02;6.38;;;3.92;;
81221;SDS011;70691;52.492;13.420;2023-08-06T05:39:28;4.65;;;3.55;;
81221;SDS011;70691;52.492;13.420;2023-08-06T05:41:53;4.50;;;3.35;;
81221;SDS011;70691;52.492;13.420;2023-08-06T05:44:20;5.18;;;3.63;;
81221;SDS011;70691;52.492;13.420;2023-08-06T05:46:46;8.20;;;4.03;;
81221;SDS011;70691;52.492;13.420;2023-08-06T05:49:11;6.22;;;4.10;;
81221;SDS011;70691;52.492;13.420;2023-08-06T05:51:38;5.20;;;3.80;;
81221;SDS011;70691;52.492;13.420;2023-08-06T05:54:04;6.13;;;4.15;;
81221;SDS011;70691;52.492;13.420;2023-08-06T05:56:30;6.95;;;3.65;;
81221;SDS011;70691;52.492;13.420;2023-08-06T05:58:55;5.10;;;3.67;;
81221;SDS011;70691;52.492;13.420;2023-08-06T06:01:21;6.97;;;3.60;;
81221;SDS011;70691;52.492;13.420;2023-08-06T06:03:47;4.55;;;3.63;;
81221;SDS011;70691;52.492;13.420;2023-08-06T06:06:12;4.45;;;3.67;;
81221;SDS011;70691;52.492;13.420;2023-08-06T06:08:38;5.63;;;3.60;;
81221;SDS011;70691;52.492;13.420;2023-08-06T06:11:04;5.63;;;3.92;;
81221;SDS011;70691;52.492;13.420;2023-08-06T06:13:29;6.07;;;3.85;;
81221;SDS011;70691;52.492;13.420;2023-08-06T06:15:57;6.00;;;3.90;;
81221;SDS011;70691;52.492;13.420;2023-08-06T06:18:23;5.18;;;4.18;;
81221;SDS011;70691;52.492;13.420;2023-08-06T06:20:49;4.43;;;3.42;;
81221;SDS011;70691;52.492;13.420;2023-08-06T06:23:14;6.90;;;4.28;;
81221;SDS011;70691;52.492;13.420;2023-08-06T06:25:59;7.07;;;4.78;;
81221;SDS011;70691;52.492;13.420;2023-08-06T06:28:25;5.95;;;4.40;;
81221;SDS011;70691;52.492;13.420;2023-08-06T06:30:50;6.57;;;4.53;;
81221;SDS011;70691;52.492;13.420;2023-08-06T06:33:16;6.88;;;5.55;;
81221;SDS011;70691;52.492;13.420;2023-08-06T06:35:42;7.45;;;5.78;;
81221;SDS011;70691;52.492;13.420;2023-08-06T06:38:08;7.53;;;5.97;;
81221;SDS011;70691;52.492;13.420;2023-08-06T06:40:33;8.48;;;5.68;;
81221;SDS011;70691;52.492;13.420;2023-08-06T06:42:59;8.77;;;6.30;;
81221;SDS011;70691;52.492;13.420;2023-08-06T06:45:27;7.65;;;5.97;;
81221;SDS011;70691;52.492;13.420;2023-08-06T06:47:53;8.95;;;6.10;;
81221;SDS011;70691;52.492;13.420;2023-08-06T06:50:19;8.35;;;6.18;;
81221;SDS011;70691;52.492;13.420;2023-08-06T06:52:44;9.75;;;6.38;;
81221;SDS011;70691;52.492;13.420;2023-08-06T06:55:10;8.32;;;5.70;;
81221;SDS011;70691;52.492;13.420;2023-08-06T06:57:35;7.97;;;5.93;;
81221;SDS011;70691;52.492;13.420;2023-08-06T07:00:01;6.88;;;5.47;;
81221;SDS011;70691;52.492;13.420;2023-08-06T07:02:27;9.88;;;6.30;;
81221;SDS011;70691;52.492;13.420;2023-08-06T07:04:52;8.45;;;5.85;;
81221;SDS011;70691;52.492;13.420;2023-08-06T07:07:18;7.53;;;5.88;;
81221;SDS011;70691;52.492;13.420;2023-08-06T07:09:44;8.68;;;5.20;;
81221;SDS011;70691;52.492;13.420;2023-08-06T07:12:10;9.70;;;6.50;;
81221;SDS011;70691;52.492;13.420;2023-08-06T07:14:35;9.27;;;6.07;;
81221;SDS011;70691;52.492;13.420;2023-08-06T07:17:01;7.82;;;5.53;;
81221;SDS011;70691;52.492;13.420;2023-08-06T07:19:27;6.65;;;4.82;;
81221;SDS011;70691;52.492;13.420;2023-08-06T07:21:53;7.13;;;5.03;;
81221;SDS011;70691;52.492;13.420;2023-08-06T07:24:18;6.13;;;4.97;;
81221;SDS011;70691;52.492;13.420;2023-08-06T07:26:44;6.95;;;5.20;;
81221;SDS011;70691;52.492;13.420;2023-08-06T07:29:10;7.97;;;5.00;;
81221;SDS011;70691;52.492;13.420;2023-08-06T07:31:36;7.95;;;4.97;;
81221;SDS011;70691;52.492;13.420;2023-08-06T07:34:01;7.50;;;5.60;;
81221;SDS011;70691;52.492;13.420;2023-08-06T07:36:27;7.60;;;5.20;;
81221;SDS011;70691;52.492;13.420;2023-08-06T07:38:52;6.97;;;5.18;;
81221;SDS011;70691;52.492;13.420;2023-08-06T07:41:22;7.45;;;5.38;;
81221;SDS011;70691;52.492;13.420;2023-08-06T07:43:48;7.38;;;5.30;;
81221;SDS011;70691;52.492;13.420;2023-08-06T07:46:14;7.05;;;4.68;;
81221;SDS011;70691;52.492;13.420;2023-08-06T07:48:42;7.35;;;5.05;;
81221;SDS011;70691;52.492;13.420;2023-08-06T07:51:08;9.35;;;6.13;;
81221;SDS011;70691;52.492;13.420;2023-08-06T07:53:33;7.43;;;4.65;;
81221;SDS011;70691;52.492;13.420;2023-08-06T07:55:59;5.50;;;4.55;;
81221;SDS011;70691;52.492;13.420;2023-08-06T07:58:27;6.15;;;4.53;;
81221;SDS011;70691;52.492;13.420;2023-08-06T08:00:54;4.97;;;4.32;;
81221;SDS011;70691;52.492;13.420;2023-08-06T08:03:20;5.47;;;4.47;;
81221;SDS011;70691;52.492;13.420;2023-08-06T08:05:45;6.35;;;4.57;;
81221;SDS011;70691;52.492;13.420;2023-08-06T08:08:11;7.65;;;4.95;;
81221;SDS011;70691;52.492;13.420;2023-08-06T08:10:37;5.65;;;4.88;;
81221;SDS011;70691;52.492;13.420;2023-08-06T08:13:04;7.93;;;4.28;;
81221;SDS011;70691;52.492;13.420;2023-08-06T08:15:30;6.78;;;4.88;;
81221;SDS011;70691;52.492;13.420;2023-08-06T08:17:57;7.70;;;4.75;;
81221;SDS011;70691;52.492;13.420;2023-08-06T08:20:23;6.38;;;4.45;;
81221;SDS011;70691;52.492;13.420;2023-08-06T08:22:49;7.00;;;5.22;;
81221;SDS011;70691;52.492;13.420;2023-08-06T08:25:15;6.28;;;4.85;;
81221;SDS011;70691;52.492;13.420;2023-08-06T08:27:41;6.78;;;4.75;;
81221;SDS011;70691;52.492;13.420;2023-08-06T08:30:07;7.40;;;5.00;;
81221;SDS011;70691;52.492;13.420;2023-08-06T08:32:33;7.47;;;4.95;;
81221;SDS011;70691;52.492;13.420;2023-08-06T08:34:58;9.30;;;6.10;;
81221;SDS011;70691;52.492;13.420;2023-08-06T08:37:24;9.45;;;4.88;;
81221;SDS011;70691;52.492;13.420;2023-08-06T08:39:49;6.05;;;5.07;;
81221;SDS011;70691;52.492;13.420;2023-08-06T08:42:15;7.25;;;5.78;;
81221;SDS011;70691;52.492;13.420;2023-08-06T08:44:44;8.40;;;6.07;;
81221;SDS011;70691;52.492;13.420;2023-08-06T08:47:10;6.57;;;5.30;;
81221;SDS011;70691;52.492;13.420;2023-08-06T08:49:37;5.72;;;5.05;;
81221;SDS011;70691;52.492;13.420;2023-08-06T08:52:03;10.52;;;5.70;;
81221;SDS011;70691;52.492;13.420;2023-08-06T08:54:37;10.60;;;5.63;;
81221;SDS011;70691;52.492;13.420;2023-08-06T08:57:04;8.05;;;6.40;;
81221;SDS011;70691;52.492;13.420;2023-08-06T08:59:30;8.65;;;5.57;;
81221;SDS011;70691;52.492;13.420;2023-08-06T09:01:57;8.75;;;6.40;;
81221;SDS011;70691;52.492;13.420;2023-08-06T09:04:26;8.75;;;6.50;;
81221;SDS011;70691;52.492;13.420;2023-08-06T09:06:56;7.75;;;6.05;;
81221;SDS011;70691;52.492;13.420;2023-08-06T09:09:26;11.45;;;7.63;;
81221;SDS011;70691;52.492;13.420;2023-08-06T09:12:00;10.35;;;7.43;;
81221;SDS011;70691;52.492;13.420;2023-08-06T09:14:27;10.18;;;7.50;;
81221;SDS011;70691;52.492;13.420;2023-08-06T09:16:53;8.60;;;6.57;;
81221;SDS011;70691;52.492;13.420;2023-08-06T09:19:20;11.20;;;7.97;;
81221;SDS011;70691;52.492;13.420;2023-08-06T09:21:46;10.48;;;7.55;;
81221;SDS011;70691;52.492;13.420;2023-08-06T09:24:14;10.10;;;7.53;;
81221;SDS011;70691;52.492;13.420;2023-08-06T09:26:41;11.35;;;8.68;;
81221;SDS011;70691;52.492;13.420;2023-08-06T09:29:09;10.65;;;7.68;;
81221;SDS011;70691;52.492;13.420;2023-08-06T09:31:43;9.20;;;7.22;;
81221;SDS011;70691;52.492;13.420;2023-08-06T09:34:20;10.00;;;7.00;;
81221;SDS011;70691;52.492;13.420;2023-08-06T09:36:53;10.85;;;8.43;;
81221;SDS011;70691;52.492;13.420;2023-08-06T09:39:20;11.63;;;8.45;;
81221;SDS011;70691;52.492;13.420;2023-08-06T09:41:55;12.93;;;8.05;;
81221;SDS011;70691;52.492;13.420;2023-08-06T09:44:26;10.90;;;7.38;;
81221;SDS011;70691;52.492;13.420;2023-08-06T09:46:53;12.80;;;6.97;;
81221;SDS011;70691;52.492;13.420;2023-08-06T09:49:21;9.57;;;7.15;;
81221;SDS011;70691;52.492;13.420;2023-08-06T09:51:50;9.18;;;7.68;;
81221;SDS011;70691;52.492;13.420;2023-08-06T09:54:18;9.27;;;7.00;;
81221;SDS011;70691;52.492;13.420;2023-08-06T09:56:44;11.23;;;7.35;;
81221;SDS011;70691;52.492;13.420;2023-08-06T09:59:10;11.57;;;8.27;;
81221;SDS011;70691;52.492;13.420;2023-08-06T10:01:36;11.10;;;7.30;;
81221;SDS011;70691;52.492;13.420;2023-08-06T10:04:03;10.38;;;7.72;;
81221;SDS011;70691;52.492;13.420;2023-08-06T10:06:33;12.90;;;7.72;;
81221;SDS011;70691;52.492;13.420;2023-08-06T10:09:03;11.68;;;8.20;;
81221;SDS011;70691;52.492;13.420;2023-08-06T10:11:29;12.55;;;7.75;;
81221;SDS011;70691;52.492;13.420;2023-08-06T10:14:04;10.40;;;7.05;;
81221;SDS011;70691;52.492;13.420;2023-08-06T10:16:35;11.70;;;7.55;;
81221;SDS011;70691;52.492;13.420;2023-08-06T10:19:03;11.63;;;9.02;;
81221;SDS011;70691;52.492;13.420;2023-08-06T10:21:33;11.10;;;7.50;;
81221;SDS011;70691;52.492;13.420;2023-08-06T10:23:58;12.25;;;8.70;;
81221;SDS011;70691;52.492;13.420;2023-08-06T10:26:29;13.90;;;9.00;;
81221;SDS011;70691;52.492;13.420;2023-08-06T10:28:55;13.00;;;8.93;;
81221;SDS011;70691;52.492;13.420;2023-08-06T10:31:53;14.70;;;9.85;;
81221;SDS011;70691;52.492;13.420;2023-08-06T10:34:56;14.52;;;9.95;;
81221;SDS011;70691;52.492;13.420;2023-08-06T10:37:36;14.32;;;9.10;;
81221;SDS011;70691;52.492;13.420;2023-08-06T10:40:02;8.57;;;6.35;;
81221;SDS011;70691;52.492;13.420;2023-08-06T10:42:28;9.82;;;6.40;;
81221;SDS011;70691;52.492;13.420;2023-08-06T10:45:16;10.57;;;7.63;;
81221;SDS011;70691;52.492;13.420;2023-08-06T10:47:42;10.63;;;7.22;;
81221;SDS011;70691;52.492;13.420;2023-08-06T10:50:11;10.82;;;7.47;;
81221;SDS011;70691;52.492;13.420;2023-08-06T10:52:39;9.98;;;7.35;;
81221;SDS011;70691;52.492;13.420;2023-08-06T10:55:05;8.27;;;5.80;;
81221;SDS011;70691;52.492;13.420;2023-08-06T10:57:34;8.05;;;6.25;;
81221;SDS011;70691;52.492;13.420;2023-08-06T11:00:09;8.65;;;5.65;;
81221;SDS011;70691;52.492;13.420;2023-08-06T11:02:37;7.50;;;5.25;;
81221;SDS011;70691;52.492;13.420;2023-08-06T11:05:10;7.95;;;5.13;;
81221;SDS011;70691;52.492;13.420;2023-08-06T11:07:39;6.47;;;4.95;;
81221;SDS011;70691;52.492;13.420;2023-08-06T11:10:08;8.15;;;5.72;;
81221;SDS011;70691;52.492;13.420;2023-08-06T11:15:01;8.35;;;6.15;;
81221;SDS011;70691;52.492;13.420;2023-08-06T11:17:28;9.25;;;6.43;;
81221;SDS011;70691;52.492;13.420;2023-08-06T11:19:55;7.18;;;5.28;;
81221;SDS011;70691;52.492;13.420;2023-08-06T11:22:21;10.30;;;6.30;;
81221;SDS011;70691;52.492;13.420;2023-08-06T11:24:50;9.00;;;5.65;;
81221;SDS011;70691;52.492;13.420;2023-08-06T11:29:43;5.88;;;4.28;;
81221;SDS011;70691;52.492;13.420;2023-08-06T11:32:09;4.35;;;3.42;;
81221;SDS011;70691;52.492;13.420;2023-08-06T11:34:36;5.15;;;3.28;;
81221;SDS011;70691;52.492;13.420;2023-08-06T11:37:02;7.07;;;4.40;;
81221;SDS011;70691;52.492;13.420;2023-08-06T11:39:30;4.97;;;4.03;;
81221;SDS011;70691;52.492;13.420;2023-08-06T11:41:59;6.90;;;4.03;;
81221;SDS011;70691;52.492;13.420;2023-08-06T11:44:29;6.70;;;5.13;;
81221;SDS011;70691;52.492;13.420;2023-08-06T11:52:24;8.80;;;5.55;;
81221;SDS011;70691;52.492;13.420;2023-08-06T11:55:01;6.28;;;4.63;;
81221;SDS011;70691;52.492;13.420;2023-08-06T11:57:42;6.82;;;5.15;;
81221;SDS011;70691;52.492;13.420;2023-08-06T12:00:13;7.63;;;5.82;;
81221;SDS011;70691;52.492;13.420;2023-08-06T12:02:40;9.00;;;5.20;;
81221;SDS011;70691;52.492;13.420;2023-08-06T12:07:43;7.35;;;5.05;;
81221;SDS011;70691;52.492;13.420;2023-08-06T12:10:11;7.22;;;5.28;;
81221;SDS011;70691;52.492;13.420;2023-08-06T12:12:38;5.90;;;4.70;;
81221;SDS011;70691;52.492;13.420;2023-08-06T12:15:04;6.80;;;4.97;;
81221;SDS011;70691;52.492;13.420;2023-08-06T12:20:03;7.47;;;5.40;;
81221;SDS011;70691;52.492;13.420;2023-08-06T12:22:30;8.00;;;5.53;;
81221;SDS011;70691;52.492;13.420;2023-08-06T12:24:59;8.50;;;5.45;;
81221;SDS011;70691;52.492;13.420;2023-08-06T12:27:26;10.55;;;7.57;;
81221;SDS011;70691;52.492;13.420;2023-08-06T12:29:51;9.35;;;6.38;;
81221;SDS011;70691;52.492;13.420;2023-08-06T12:32:17;8.65;;;6.30;;
81221;SDS011;70691;52.492;13.420;2023-08-06T12:34:44;9.23;;;7.03;;
81221;SDS011;70691;52.492;13.420;2023-08-06T12:37:09;8.10;;;5.97;;
81221;SDS011;70691;52.492;13.420;2023-08-06T12:39:36;8.98;;;6.63;;
81221;SDS011;70691;52.492;13.420;2023-08-06T12:42:02;10.10;;;6.75;;
81221;SDS011;70691;52.492;13.420;2023-08-06T12:44:30;9.82;;;7.35;;
81221;SDS011;70691;52.492;13.420;2023-08-06T12:46:56;8.90;;;6.93;;
81221;SDS011;70691;52.492;13.420;2023-08-06T12:49:22;9.73;;;7.70;;
81221;SDS011;70691;52.492;13.420;2023-08-06T12:51:50;10.30;;;6.97;;
81221;SDS011;70691;52.492;13.420;2023-08-06T12:54:17;11.05;;;7.47;;
81221;SDS011;70691;52.492;13.420;2023-08-06T12:56:43;11.63;;;6.93;;
81221;SDS011;70691;52.492;13.420;2023-08-06T12:59:10;10.82;;;7.93;;
81221;SDS011;70691;52.492;13.420;2023-08-06T13:01:36;10.32;;;7.35;;
81221;SDS011;70691;52.492;13.420;2023-08-06T13:04:03;8.55;;;6.63;;
81221;SDS011;70691;52.492;13.420;2023-08-06T13:06:29;9.95;;;6.20;;
81221;SDS011;70691;52.492;13.420;2023-08-06T13:08:55;10.02;;;6.35;;
81221;SDS011;70691;52.492;13.420;2023-08-06T13:11:24;9.63;;;6.28;;
81221;SDS011;70691;52.492;13.420;2023-08-06T13:13:50;9.35;;;6.28;;
81221;SDS011;70691;52.492;13.420;2023-08-06T13:16:15;9.10;;;6.40;;
81221;SDS011;70691;52.492;13.420;2023-08-06T13:18:41;9.25;;;6.97;;
81221;SDS011;70691;52.492;13.420;2023-08-06T13:21:10;7.90;;;6.00;;
81221;SDS011;70691;52.492;13.420;2023-08-06T13:23:35;9.80;;;6.65;;
81221;SDS011;70691;52.492;13.420;2023-08-06T13:26:01;8.40;;;6.40;;
81221;SDS011;70691;52.492;13.420;2023-08-06T13:28:26;10.32;;;6.30;;
81221;SDS011;70691;52.492;13.420;2023-08-06T13:30:52;8.68;;;6.05;;
81221;SDS011;70691;52.492;13.420;2023-08-06T13:33:18;11.02;;;6.35;;
81221;SDS011;70691;52.492;13.420;2023-08-06T13:35:43;11.38;;;7.47;;
81221;SDS011;70691;52.492;13.420;2023-08-06T13:38:09;12.60;;;6.70;;
81221;SDS011;70691;52.492;13.420;2023-08-06T13:40:35;9.38;;;7.05;;
81221;SDS011;70691;52.492;13.420;2023-08-06T13:43:01;12.50;;;7.15;;
81221;SDS011;70691;52.492;13.420;2023-08-06T13:45:27;10.60;;;7.40;;
81221;SDS011;70691;52.492;13.420;2023-08-06T13:47:52;9.75;;;6.57;;
81221;SDS011;70691;52.492;13.420;2023-08-06T13:50:20;10.40;;;6.97;;
81221;SDS011;70691;52.492;13.420;2023-08-06T13:52:47;10.02;;;6.47;;
81221;SDS011;70691;52.492;13.420;2023-08-06T13:55:12;9.65;;;6.40;;
81221;SDS011;70691;52.492;13.420;2023-08-06T13:57:38;10.20;;;6.10;;
81221;SDS011;70691;52.492;13.420;2023-08-06T14:00:04;10.50;;;6.80;;
81221;SDS011;70691;52.492;13.420;2023-08-06T14:02:30;9.57;;;6.10;;
81221;SDS011;70691;52.492;13.420;2023-08-06T14:04:56;9.00;;;6.78;;
81221;SDS011;70691;52.492;13.420;2023-08-06T14:07:22;10.63;;;6.60;;
81221;SDS011;70691;52.492;13.420;2023-08-06T14:09:48;10.02;;;6.75;;
81221;SDS011;70691;52.492;13.420;2023-08-06T14:12:14;12.15;;;6.60;;
81221;SDS011;70691;52.492;13.420;2023-08-06T14:14:40;11.52;;;6.15;;
81221;SDS011;70691;52.492;13.420;2023-08-06T14:17:05;9.77;;;6.57;;
81221;SDS011;70691;52.492;13.420;2023-08-06T14:19:31;12.93;;;6.50;;
81221;SDS011;70691;52.492;13.420;2023-08-06T14:21:57;9.38;;;6.93;;
81221;SDS011;70691;52.492;13.420;2023-08-06T14:24:23;10.13;;;7.45;;
81221;SDS011;70691;52.492;13.420;2023-08-06T14:26:48;10.77;;;7.38;;
81221;SDS011;70691;52.492;13.420;2023-08-06T14:29:14;13.40;;;6.97;;
81221;SDS011;70691;52.492;13.420;2023-08-06T14:31:40;10.00;;;6.00;;
81221;SDS011;70691;52.492;13.420;2023-08-06T14:34:06;7.97;;;6.22;;
81221;SDS011;70691;52.492;13.420;2023-08-06T14:36:32;13.13;;;6.28;;
81221;SDS011;70691;52.492;13.420;2023-08-06T14:38:57;6.22;;;4.38;;
81221;SDS011;70691;52.492;13.420;2023-08-06T14:41:23;7.47;;;5.28;;
81221;SDS011;70691;52.492;13.420;2023-08-06T14:43:49;7.53;;;4.78;;
81221;SDS011;70691;52.492;13.420;2023-08-06T14:46:15;7.25;;;4.45;;
81221;SDS011;70691;52.492;13.420;2023-08-06T14:48:41;9.55;;;5.10;;
81221;SDS011;70691;52.492;13.420;2023-08-06T14:51:07;7.72;;;5.10;;